createdAt,value
2017-12-19T00:01:01.947Z,19.30
2017-12-19T00:03:29.471Z,18.03
2017-12-19T00:05:56.998Z,19.10
2017-12-19T00:08:24.572Z,18.37
2017-12-19T00:10:52.082Z,19.33
2017-12-19T00:13:19.605Z,19.80
2017-12-19T00:15:47.137Z,19.40
2017-12-19T00:18:14.660Z,19.10
2017-12-19T00:20:42.188Z,18.17
2017-12-19T00:23:09.706Z,19.10
2017-12-19T00:25:37.237Z,19.20
2017-12-19T00:28:04.797Z,17.37
2017-12-19T00:30:32.321Z,18.23
2017-12-19T00:32:59.843Z,19.50
2017-12-19T00:35:27.377Z,19.90
2017-12-19T00:37:54.901Z,19.37
2017-12-19T00:40:22.453Z,19.20
2017-12-19T00:42:49.979Z,19.53
2017-12-19T00:45:17.509Z,19.77
2017-12-19T00:47:45.031Z,20.07
2017-12-19T00:50:12.557Z,18.50
2017-12-19T00:52:40.087Z,19.63
2017-12-19T00:55:07.849Z,18.90
2017-12-19T00:57:35.371Z,19.10
2017-12-19T01:00:02.900Z,19.10
2017-12-19T01:02:30.432Z,18.33
2017-12-19T01:04:57.950Z,18.93
2017-12-19T01:07:25.486Z,19.63
2017-12-19T01:09:53.030Z,17.97
2017-12-19T01:12:20.556Z,18.83
2017-12-19T01:14:48.107Z,19.40
2017-12-19T01:17:15.631Z,18.80
2017-12-19T01:19:43.154Z,18.10
2017-12-19T01:22:10.683Z,20.87
2017-12-19T01:24:38.211Z,18.60
2017-12-19T01:27:06.025Z,18.80
2017-12-19T01:29:34.315Z,19.80
2017-12-19T01:32:01.838Z,18.90
2017-12-19T01:34:29.358Z,19.77
2017-12-19T01:36:56.886Z,19.40
2017-12-19T01:39:24.410Z,20.10
2017-12-19T01:41:52.758Z,19.43
2017-12-19T01:44:20.284Z,19.23
2017-12-19T01:46:47.815Z,19.47
2017-12-19T01:49:15.346Z,19.87
2017-12-19T01:51:42.874Z,18.83
2017-12-19T01:54:10.397Z,19.53
2017-12-19T01:56:37.923Z,21.07
2017-12-19T01:59:05.454Z,18.87
2017-12-19T02:01:32.970Z,18.53
2017-12-19T02:04:00.493Z,20.03
2017-12-19T02:06:28.019Z,19.57
2017-12-19T02:08:55.549Z,19.90
2017-12-19T02:11:23.080Z,19.50
2017-12-19T02:13:50.604Z,19.00
2017-12-19T02:16:18.132Z,19.40
2017-12-19T02:18:45.654Z,19.13
2017-12-19T02:21:13.181Z,19.17
2017-12-19T02:23:40.699Z,20.03
2017-12-19T02:26:08.225Z,18.67
2017-12-19T02:28:35.732Z,19.20
2017-12-19T02:31:03.244Z,19.57
2017-12-19T02:33:30.784Z,19.07
2017-12-19T02:35:58.307Z,18.33
2017-12-19T02:38:25.826Z,19.13
2017-12-19T02:40:53.357Z,19.33
2017-12-19T02:43:21.738Z,18.73
2017-12-19T02:45:53.243Z,19.87
2017-12-19T02:48:20.779Z,19.60
2017-12-19T02:50:48.302Z,20.97
2017-12-19T02:53:15.835Z,21.27
2017-12-19T02:55:43.423Z,19.73
2017-12-19T02:58:10.910Z,19.47
2017-12-19T03:00:38.457Z,19.90
2017-12-19T03:03:05.998Z,19.53
2017-12-19T03:05:33.531Z,19.47
2017-12-19T03:08:01.050Z,19.87
2017-12-19T03:10:28.574Z,20.23
2017-12-19T03:12:56.109Z,19.47
2017-12-19T03:15:23.644Z,19.77
2017-12-19T03:17:51.191Z,20.03
2017-12-19T03:20:18.713Z,20.60
2017-12-19T03:22:46.247Z,19.60
2017-12-19T03:25:13.766Z,19.87
2017-12-19T03:27:41.290Z,20.60
2017-12-19T03:30:08.820Z,18.93
2017-12-19T03:32:37.950Z,20.30
2017-12-19T03:35:05.474Z,20.20
2017-12-19T03:37:33.037Z,21.30
2017-12-19T03:40:00.568Z,18.60
2017-12-19T03:42:28.118Z,19.77
2017-12-19T03:44:55.641Z,19.57
2017-12-19T03:47:23.172Z,20.00
2017-12-19T03:49:50.699Z,19.40
2017-12-19T03:52:18.226Z,20.83
2017-12-19T03:54:45.780Z,20.27
2017-12-19T03:57:13.321Z,20.47
2017-12-19T03:59:40.871Z,20.57
2017-12-19T04:02:08.395Z,22.67
2017-12-19T04:04:35.935Z,22.83
2017-12-19T04:07:03.479Z,20.97
2017-12-19T04:09:31.008Z,21.17
2017-12-19T04:11:58.530Z,21.13
2017-12-19T04:14:26.091Z,20.73
2017-12-19T04:16:53.617Z,20.37
2017-12-19T04:19:21.145Z,20.17
2017-12-19T04:21:48.671Z,20.73
2017-12-19T04:24:16.199Z,20.10
2017-12-19T04:26:43.723Z,20.67
2017-12-19T04:29:11.252Z,20.20
2017-12-19T04:31:38.794Z,21.10
2017-12-19T04:34:06.330Z,21.73
2017-12-19T04:36:33.857Z,20.37
2017-12-19T04:39:01.388Z,20.53
2017-12-19T04:41:28.939Z,21.57
2017-12-19T04:43:56.470Z,21.90
2017-12-19T04:46:23.999Z,19.97
2017-12-19T04:48:51.522Z,21.43
2017-12-19T04:51:19.059Z,20.63
2017-12-19T04:53:46.597Z,21.00
2017-12-19T04:56:14.163Z,23.00
2017-12-19T04:58:41.691Z,21.67
2017-12-19T05:01:09.220Z,21.90
2017-12-19T05:03:36.746Z,20.17
2017-12-19T05:06:04.266Z,22.57
2017-12-19T05:08:31.790Z,21.87
2017-12-19T05:10:59.320Z,20.73
2017-12-19T05:13:26.845Z,22.10
2017-12-19T05:15:54.366Z,21.63
2017-12-19T05:18:21.891Z,21.53
2017-12-19T05:20:49.423Z,21.33
2017-12-19T05:23:16.957Z,21.90
2017-12-19T05:25:44.503Z,20.67
2017-12-19T05:28:12.050Z,21.10
2017-12-19T05:30:39.590Z,21.67
2017-12-19T05:33:07.128Z,22.83
2017-12-19T05:35:34.653Z,21.73
2017-12-19T05:38:02.179Z,21.50
2017-12-19T05:40:29.721Z,21.37
2017-12-19T05:42:57.250Z,22.17
2017-12-19T05:45:24.780Z,21.83
2017-12-19T05:47:52.325Z,22.90
2017-12-19T05:50:19.859Z,22.23
2017-12-19T05:52:47.387Z,22.27
2017-12-19T05:55:14.908Z,22.03
2017-12-19T05:57:42.436Z,22.23
2017-12-19T06:00:09.968Z,23.00
2017-12-19T06:02:37.489Z,22.87
2017-12-19T06:05:05.012Z,22.40
2017-12-19T06:07:32.542Z,21.57
2017-12-19T06:10:00.089Z,22.03
2017-12-19T06:12:27.618Z,22.03
2017-12-19T06:14:55.148Z,21.73
2017-12-19T06:17:22.669Z,21.53
2017-12-19T06:19:50.192Z,22.60
2017-12-19T06:22:17.725Z,21.97
2017-12-19T06:24:45.254Z,21.30
2017-12-19T06:27:12.784Z,22.30
2017-12-19T06:29:40.302Z,22.63
2017-12-19T06:32:07.823Z,21.60
2017-12-19T06:34:35.349Z,21.73
2017-12-19T06:37:02.879Z,23.33
2017-12-19T06:39:30.401Z,22.90
2017-12-19T06:41:57.921Z,22.40
2017-12-19T06:44:25.460Z,22.23
2017-12-19T06:46:52.976Z,22.37
2017-12-19T06:49:20.495Z,22.90
2017-12-19T06:51:48.038Z,23.40
2017-12-19T06:54:15.567Z,22.70
2017-12-19T06:56:43.099Z,23.33
2017-12-19T06:59:10.672Z,23.27
2017-12-19T07:01:38.208Z,23.50
2017-12-19T07:04:05.732Z,22.00
2017-12-19T07:06:33.250Z,21.70
2017-12-19T07:09:00.793Z,23.07
2017-12-19T07:11:28.323Z,21.07
2017-12-19T07:13:55.855Z,21.97
2017-12-19T07:16:23.382Z,22.37
2017-12-19T07:18:50.906Z,23.03
2017-12-19T07:21:18.425Z,21.37
2017-12-19T07:23:45.952Z,22.40
2017-12-19T07:26:13.486Z,21.50
2017-12-19T07:28:40.997Z,22.87
2017-12-19T07:31:08.527Z,23.23
2017-12-19T07:33:36.044Z,23.07
2017-12-19T07:36:03.576Z,23.80
2017-12-19T07:38:31.103Z,22.60
2017-12-19T07:40:58.642Z,23.90
2017-12-19T07:43:26.177Z,22.50
2017-12-19T07:45:53.706Z,23.00
2017-12-19T07:48:21.229Z,23.40
2017-12-19T07:50:48.752Z,24.17
2017-12-19T07:53:16.274Z,22.93
2017-12-19T07:55:43.797Z,23.77
2017-12-19T07:58:11.330Z,23.60
2017-12-19T08:00:38.845Z,24.63
2017-12-19T08:03:06.385Z,23.03
2017-12-19T08:05:33.907Z,24.33
2017-12-19T08:08:01.436Z,24.77
2017-12-19T08:10:28.967Z,23.93
2017-12-19T08:12:56.492Z,24.37
2017-12-19T08:15:24.017Z,24.70
2017-12-19T08:17:51.543Z,24.43
2017-12-19T08:20:19.086Z,25.23
2017-12-19T08:22:46.623Z,24.30
2017-12-19T08:25:14.151Z,25.20
2017-12-19T08:27:41.694Z,26.00
2017-12-19T08:30:09.226Z,26.10
2017-12-19T08:32:36.755Z,25.37
2017-12-19T08:35:04.273Z,25.13
2017-12-19T08:37:31.810Z,25.63
2017-12-19T08:39:59.337Z,26.67
2017-12-19T08:42:26.866Z,27.43
2017-12-19T08:44:54.409Z,26.77
2017-12-19T08:47:21.939Z,27.20
2017-12-19T08:49:49.466Z,26.83
2017-12-19T08:52:16.991Z,26.57
2017-12-19T08:54:44.515Z,27.03
2017-12-19T08:57:12.044Z,29.20
2017-12-19T08:59:39.575Z,29.17
2017-12-19T09:02:07.099Z,29.00
2017-12-19T09:04:34.626Z,28.13
2017-12-19T09:07:02.150Z,30.03
2017-12-19T09:09:29.671Z,28.20
2017-12-19T09:11:57.198Z,29.77
2017-12-19T09:14:24.735Z,29.40
2017-12-19T09:16:52.253Z,30.87
2017-12-19T09:19:19.775Z,31.33
2017-12-19T09:21:47.316Z,30.73
2017-12-19T09:24:14.875Z,31.07
2017-12-19T09:26:42.416Z,29.63
2017-12-19T09:29:09.974Z,30.77
2017-12-19T09:31:37.507Z,29.33
2017-12-19T09:34:05.045Z,28.60
2017-12-19T09:36:32.562Z,30.00
2017-12-19T09:39:00.090Z,30.13
2017-12-19T09:41:27.614Z,29.50
2017-12-19T09:43:55.152Z,29.63
2017-12-19T09:46:22.687Z,28.57
2017-12-19T09:48:50.211Z,29.17
2017-12-19T09:51:17.753Z,28.07
2017-12-19T09:53:45.278Z,31.33
2017-12-19T09:56:12.803Z,29.90
2017-12-19T09:58:40.327Z,29.27
2017-12-19T10:01:07.854Z,29.63
2017-12-19T10:03:35.382Z,30.70
2017-12-19T10:06:02.905Z,29.97
2017-12-19T10:08:30.426Z,30.57
2017-12-19T10:10:57.952Z,32.50
2017-12-19T10:13:25.472Z,32.73
2017-12-19T10:15:53.006Z,32.70
2017-12-19T10:18:20.539Z,31.37
2017-12-19T10:20:48.056Z,32.30
2017-12-19T10:23:15.582Z,33.47
2017-12-19T10:25:43.237Z,32.60
2017-12-19T10:28:10.774Z,32.77
2017-12-19T10:30:38.294Z,31.90
2017-12-19T10:33:05.876Z,32.73
2017-12-19T10:35:33.412Z,32.57
2017-12-19T10:38:00.941Z,33.40
2017-12-19T10:40:28.468Z,32.70
2017-12-19T10:42:56.001Z,31.80
2017-12-19T10:45:23.567Z,31.90
2017-12-19T10:47:51.082Z,30.57
2017-12-19T10:50:18.610Z,31.77
2017-12-19T10:52:46.136Z,31.60
2017-12-19T10:55:13.667Z,31.87
2017-12-19T10:57:41.187Z,30.70
2017-12-19T11:00:08.711Z,31.20
2017-12-19T11:02:36.230Z,31.83
2017-12-19T11:05:03.780Z,30.53
2017-12-19T11:07:31.308Z,32.10
2017-12-19T11:09:58.849Z,31.30
2017-12-19T11:12:26.369Z,30.00
2017-12-19T11:14:53.897Z,29.80
2017-12-19T11:17:21.418Z,28.87
2017-12-19T11:19:48.946Z,30.23
2017-12-19T11:22:16.480Z,27.13
2017-12-19T11:24:44.018Z,28.23
2017-12-19T11:27:11.551Z,26.80
2017-12-19T11:29:39.091Z,25.93
2017-12-19T11:32:06.909Z,26.43
2017-12-19T11:34:34.492Z,25.47
2017-12-19T11:37:02.059Z,25.03
2017-12-19T11:39:29.580Z,25.20
2017-12-19T11:41:57.104Z,23.97
2017-12-19T11:44:24.623Z,22.43
2017-12-19T11:46:52.153Z,22.63
2017-12-19T11:49:19.674Z,21.93
2017-12-19T11:51:47.231Z,20.23
2017-12-19T11:54:14.749Z,20.20
2017-12-19T11:56:42.270Z,21.13
2017-12-19T11:59:09.801Z,20.47
2017-12-19T12:01:37.322Z,19.67
2017-12-19T12:04:04.882Z,17.97
2017-12-19T12:06:32.413Z,17.60
2017-12-19T12:08:59.944Z,18.73
2017-12-19T12:11:27.469Z,18.63
2017-12-19T12:13:55.031Z,18.13
2017-12-19T12:16:22.543Z,18.27
2017-12-19T12:18:50.559Z,18.00
2017-12-19T12:21:18.087Z,16.57
2017-12-19T12:23:45.605Z,15.50
2017-12-19T12:26:13.131Z,17.07
2017-12-19T12:28:40.678Z,17.43
2017-12-19T12:31:08.207Z,17.80
2017-12-19T12:33:35.737Z,16.60
2017-12-19T12:36:03.261Z,17.23
2017-12-19T12:38:30.790Z,16.83
2017-12-19T12:40:58.314Z,16.00
2017-12-19T12:43:25.830Z,16.87
2017-12-19T12:45:53.364Z,16.73
2017-12-19T12:48:20.899Z,16.23
2017-12-19T12:50:48.422Z,15.67
2017-12-19T12:53:15.949Z,16.33
2017-12-19T12:55:43.485Z,14.17
2017-12-19T12:58:11.013Z,14.87
2017-12-19T13:00:38.549Z,16.27
2017-12-19T13:03:06.075Z,14.97
2017-12-19T13:05:33.607Z,15.53
2017-12-19T13:08:01.125Z,16.30
2017-12-19T13:10:28.652Z,15.57
2017-12-19T13:12:56.182Z,15.37
2017-12-19T13:15:23.702Z,14.33
2017-12-19T13:17:51.218Z,15.80
2017-12-19T13:20:18.744Z,15.53
2017-12-19T13:22:46.307Z,15.43
2017-12-19T13:25:13.834Z,16.83
2017-12-19T13:27:41.430Z,15.13
2017-12-19T13:30:08.961Z,14.03
2017-12-19T13:32:36.484Z,14.43
2017-12-19T13:35:04.005Z,14.53
2017-12-19T13:37:31.529Z,15.40
2017-12-19T13:39:59.061Z,15.67
2017-12-19T13:42:26.580Z,15.43
2017-12-19T13:44:54.106Z,15.80
2017-12-19T13:47:21.657Z,16.00
2017-12-19T13:49:49.204Z,16.60
2017-12-19T13:52:16.821Z,16.40
2017-12-19T13:54:44.395Z,16.87
2017-12-19T13:57:11.922Z,16.50
2017-12-19T13:59:39.443Z,15.97
2017-12-19T14:02:06.981Z,16.40
2017-12-19T14:04:34.518Z,17.00
2017-12-19T14:07:02.148Z,16.33
2017-12-19T14:09:29.682Z,15.37
2017-12-19T14:11:57.286Z,16.67
2017-12-19T14:14:24.833Z,14.23
2017-12-19T14:16:52.356Z,14.37
2017-12-19T14:19:19.916Z,14.90
2017-12-19T14:21:47.446Z,16.17
2017-12-19T14:24:15.025Z,16.77
2017-12-19T14:26:42.549Z,16.50
2017-12-19T14:29:10.239Z,16.03
2017-12-19T14:31:37.793Z,17.30
2017-12-19T14:34:05.350Z,17.53
2017-12-19T14:36:32.881Z,16.87
2017-12-19T14:39:00.422Z,16.60
2017-12-19T14:41:27.970Z,17.33
2017-12-19T14:43:55.527Z,17.10
2017-12-19T14:46:23.072Z,16.17
2017-12-19T14:48:50.609Z,17.73
2017-12-19T14:51:18.161Z,17.23
2017-12-19T14:53:45.728Z,15.90
2017-12-19T14:56:13.250Z,17.67
2017-12-19T14:58:40.770Z,16.87
2017-12-19T15:01:08.298Z,16.77
2017-12-19T15:03:35.830Z,17.03
2017-12-19T15:06:03.386Z,17.53
2017-12-19T15:08:30.915Z,16.50
2017-12-19T15:10:58.473Z,16.17
2017-12-19T15:13:26.005Z,16.77
2017-12-19T15:15:53.530Z,15.40
2017-12-19T15:18:21.046Z,15.97
2017-12-19T15:20:48.584Z,16.70
2017-12-19T15:23:16.098Z,15.77
2017-12-19T15:25:43.618Z,15.40
2017-12-19T15:28:11.158Z,15.67
2017-12-19T15:30:38.683Z,16.40
2017-12-19T15:33:06.203Z,17.07
2017-12-19T15:35:33.734Z,15.73
2017-12-19T15:38:01.263Z,17.13
2017-12-19T15:40:28.785Z,17.03
2017-12-19T15:42:56.310Z,16.13
2017-12-19T15:45:23.836Z,15.27
2017-12-19T15:47:51.381Z,14.23
2017-12-19T15:50:18.970Z,14.63
2017-12-19T15:52:46.502Z,12.97
2017-12-19T15:55:14.024Z,13.73
2017-12-19T15:57:41.569Z,13.07
2017-12-19T16:00:09.085Z,12.90
2017-12-19T16:02:36.612Z,12.10
2017-12-19T16:05:04.141Z,13.17
2017-12-19T16:07:31.655Z,12.97
2017-12-19T17:31:56.251Z,18.63
2017-12-19T17:34:23.777Z,18.50
2017-12-19T17:36:51.306Z,18.13
2017-12-19T17:39:18.835Z,18.77
2017-12-19T17:41:46.379Z,18.77
2017-12-19T17:44:13.902Z,17.50
2017-12-19T17:46:41.434Z,17.90
2017-12-19T17:49:09.398Z,17.53
2017-12-19T17:51:36.934Z,19.23
2017-12-19T17:54:04.491Z,19.03
2017-12-19T17:56:32.020Z,18.47
2017-12-19T17:58:59.538Z,19.00
2017-12-19T18:01:27.049Z,18.10
2017-12-19T18:03:54.590Z,17.80
2017-12-19T18:06:22.128Z,18.13
2017-12-19T18:08:49.669Z,17.13
2017-12-19T18:11:17.201Z,17.30
2017-12-19T18:13:44.727Z,16.63
2017-12-19T18:16:12.263Z,17.30
2017-12-19T18:18:39.811Z,25.77
2017-12-19T18:21:07.339Z,16.87
2017-12-19T18:23:34.862Z,16.10
2017-12-19T18:26:02.401Z,17.27
2017-12-19T18:28:29.944Z,17.50
2017-12-19T18:30:57.475Z,17.40
2017-12-19T18:33:25.003Z,18.30
2017-12-19T18:35:52.539Z,17.43
2017-12-19T18:38:20.069Z,16.70
2017-12-19T18:40:47.600Z,16.67
2017-12-19T18:43:15.126Z,15.97
2017-12-19T18:45:42.680Z,16.50
2017-12-19T18:48:10.223Z,17.10
2017-12-19T18:50:37.768Z,16.67
2017-12-19T18:53:05.290Z,16.87
2017-12-19T18:55:32.879Z,16.97
2017-12-19T18:58:00.411Z,16.07
2017-12-19T19:00:27.974Z,16.67
2017-12-19T19:02:55.502Z,15.77
2017-12-19T19:05:23.139Z,14.93
2017-12-19T19:07:50.684Z,16.63
2017-12-19T19:10:18.210Z,17.03
2017-12-19T19:12:45.737Z,17.13
2017-12-19T19:15:13.359Z,17.27
2017-12-19T19:17:40.891Z,16.87
2017-12-19T19:20:09.311Z,15.33
2017-12-19T19:22:36.861Z,18.27
2017-12-19T19:25:04.390Z,16.67
2017-12-19T19:27:31.920Z,17.90
2017-12-19T19:29:59.447Z,16.97
2017-12-19T19:32:27.252Z,17.60
2017-12-19T19:34:54.824Z,17.43
2017-12-19T19:37:22.434Z,16.47
2017-12-19T19:39:49.966Z,18.57
2017-12-19T19:42:17.493Z,17.67
2017-12-19T19:44:45.041Z,16.83
2017-12-19T19:47:12.590Z,16.63
2017-12-19T19:49:40.129Z,17.13
2017-12-19T19:52:07.662Z,18.40
2017-12-19T19:54:35.196Z,17.93
2017-12-19T19:57:02.725Z,17.47
2017-12-19T19:59:30.245Z,17.23
2017-12-19T20:01:57.757Z,17.57
2017-12-19T20:04:25.302Z,18.33
2017-12-19T20:06:52.828Z,18.47
2017-12-19T20:09:20.351Z,18.20
2017-12-19T20:11:47.885Z,17.93
2017-12-19T20:14:15.498Z,17.77
2017-12-19T20:16:43.019Z,19.43
2017-12-19T20:19:10.577Z,18.53
2017-12-19T20:21:38.099Z,18.13
2017-12-19T20:24:05.632Z,18.80
2017-12-19T20:26:33.174Z,18.67
2017-12-19T20:29:00.712Z,18.67
2017-12-19T20:31:28.252Z,20.50
2017-12-19T20:33:55.787Z,20.50
2017-12-19T20:36:23.310Z,19.10
2017-12-19T20:38:50.828Z,19.60
2017-12-19T20:41:18.360Z,20.20
2017-12-19T20:43:45.915Z,19.27
2017-12-19T20:46:13.449Z,19.10
2017-12-19T20:48:40.978Z,18.90
2017-12-19T20:51:08.515Z,18.40
2017-12-19T20:53:36.043Z,20.83
2017-12-19T20:56:03.575Z,20.23
2017-12-19T20:58:31.100Z,20.20
2017-12-19T21:00:58.629Z,20.63
2017-12-19T21:03:26.150Z,20.13
2017-12-19T21:05:53.673Z,19.70
2017-12-19T21:08:21.194Z,18.17
2017-12-19T21:10:48.722Z,18.83
2017-12-19T21:13:16.247Z,19.73
2017-12-19T21:15:43.769Z,19.40
2017-12-19T21:18:11.299Z,19.93
2017-12-19T21:20:38.830Z,18.93
2017-12-19T21:23:06.370Z,19.70
2017-12-19T21:25:33.897Z,19.20
2017-12-19T21:28:01.504Z,18.50
2017-12-19T21:30:29.026Z,19.33
2017-12-19T21:32:56.555Z,18.03
2017-12-19T21:35:24.079Z,17.83
2017-12-19T21:37:51.612Z,19.37
2017-12-19T21:40:19.149Z,19.60
2017-12-19T21:42:46.692Z,18.13
2017-12-19T21:45:14.218Z,19.10
2017-12-19T21:47:41.773Z,18.47
2017-12-19T21:50:09.306Z,19.23
2017-12-19T21:52:36.829Z,18.40
2017-12-19T21:55:04.353Z,17.67
2017-12-19T21:57:31.957Z,18.57
2017-12-19T21:59:59.509Z,19.17
2017-12-19T22:02:27.122Z,19.57
2017-12-19T22:04:54.655Z,18.93
2017-12-19T22:07:22.223Z,18.97
2017-12-19T22:09:49.815Z,19.33
2017-12-19T22:12:17.342Z,20.13
2017-12-19T22:14:44.868Z,19.40
2017-12-19T22:17:12.397Z,18.20
2017-12-19T22:19:39.988Z,20.47
2017-12-19T22:22:07.514Z,20.50
2017-12-19T22:24:35.153Z,19.97
2017-12-19T22:27:02.695Z,19.13
2017-12-19T22:29:30.302Z,19.17
2017-12-19T22:31:57.821Z,18.97
2017-12-19T22:34:25.390Z,20.00
2017-12-19T22:36:52.929Z,20.27
2017-12-19T22:39:20.470Z,20.13
2017-12-19T22:41:47.994Z,20.43
2017-12-19T22:44:15.560Z,19.00
2017-12-19T22:46:43.154Z,19.77
2017-12-19T22:49:10.702Z,19.47
2017-12-19T22:51:38.293Z,21.03
2017-12-19T22:54:05.869Z,19.90
2017-12-19T22:56:33.460Z,20.80
2017-12-19T22:59:00.995Z,20.73
2017-12-19T23:01:28.527Z,19.70
2017-12-19T23:03:56.054Z,19.33
2017-12-19T23:06:23.599Z,18.50
2017-12-19T23:08:51.153Z,17.80
2017-12-19T23:11:18.669Z,18.70
2017-12-19T23:13:46.299Z,16.13
2017-12-19T23:16:13.830Z,13.63
2017-12-19T23:18:41.360Z,11.97
2017-12-19T23:21:08.877Z,11.77
2017-12-19T23:23:36.426Z,10.60
2017-12-19T23:26:03.984Z,10.80
2017-12-19T23:28:31.647Z,10.40
2017-12-19T23:30:59.182Z,10.30
2017-12-19T23:33:26.753Z,10.37
2017-12-19T23:35:54.475Z,10.93
2017-12-19T23:38:22.012Z,11.00
2017-12-19T23:40:49.590Z,11.37
2017-12-19T23:43:17.161Z,11.50
2017-12-19T23:45:44.719Z,13.53
2017-12-19T23:48:12.259Z,13.87
2017-12-19T23:50:39.783Z,17.50
2017-12-19T23:53:07.324Z,17.97
2017-12-19T23:55:34.960Z,17.73
2017-12-19T23:58:02.529Z,18.30
